sensor_id;sensor_type;location;lat;lon;timestamp;P1;durP1;ratioP1;P2;durP2;ratioP2
47749;SDS011;49810;48.160;10.812;2023-05-10T00:01:55;2.50;;;1.80;;
47749;SDS011;49810;48.160;10.812;2023-05-10T00:04:24;3.13;;;1.40;;
47749;SDS011;49810;48.160;10.812;2023-05-10T00:06:53;2.75;;;1.85;;
47749;SDS011;49810;48.160;10.812;2023-05-10T00:09:21;2.38;;;1.70;;
47749;SDS011;49810;48.160;10.812;2023-05-10T00:11:49;3.13;;;1.83;;
47749;SDS011;49810;48.160;10.812;2023-05-10T00:14:17;2.78;;;1.70;;
47749;SDS011;49810;48.160;10.812;2023-05-10T00:16:45;2.55;;;1.75;;
47749;SDS011;49810;48.160;10.812;2023-05-10T00:19:13;3.33;;;1.40;;
47749;SDS011;49810;48.160;10.812;2023-05-10T00:21:43;1.95;;;1.38;;
47749;SDS011;49810;48.160;10.812;2023-05-10T00:24:11;2.85;;;1.33;;
47749;SDS011;49810;48.160;10.812;2023-05-10T00:26:38;3.92;;;1.35;;
47749;SDS011;49810;48.160;10.812;2023-05-10T00:29:07;1.70;;;1.10;;
47749;SDS011;49810;48.160;10.812;2023-05-10T00:31:35;2.05;;;1.15;;
47749;SDS011;49810;48.160;10.812;2023-05-10T00:34:03;1.88;;;1.20;;
47749;SDS011;49810;48.160;10.812;2023-05-10T00:36:31;1.85;;;1.00;;
47749;SDS011;49810;48.160;10.812;2023-05-10T00:39:01;1.73;;;1.10;;
47749;SDS011;49810;48.160;10.812;2023-05-10T00:41:30;2.00;;;1.17;;
47749;SDS011;49810;48.160;10.812;2023-05-10T00:44:00;1.38;;;1.00;;
47749;SDS011;49810;48.160;10.812;2023-05-10T00:46:29;1.42;;;0.90;;
47749;SDS011;49810;48.160;10.812;2023-05-10T00:48:57;5.10;;;1.00;;
47749;SDS011;49810;48.160;10.812;2023-05-10T00:51:25;1.88;;;1.27;;
47749;SDS011;49810;48.160;10.812;2023-05-10T00:53:53;3.45;;;1.30;;
47749;SDS011;49810;48.160;10.812;2023-05-10T00:56:24;2.63;;;1.35;;
47749;SDS011;49810;48.160;10.812;2023-05-10T00:58:51;3.42;;;1.60;;
47749;SDS011;49810;48.160;10.812;2023-05-10T01:01:19;2.25;;;1.10;;
47749;SDS011;49810;48.160;10.812;2023-05-10T01:03:48;1.92;;;1.25;;
47749;SDS011;49810;48.160;10.812;2023-05-10T01:06:16;2.40;;;1.25;;
47749;SDS011;49810;48.160;10.812;2023-05-10T01:08:44;2.05;;;1.45;;
47749;SDS011;49810;48.160;10.812;2023-05-10T01:11:12;1.80;;;1.25;;
47749;SDS011;49810;48.160;10.812;2023-05-10T01:13:42;2.70;;;1.30;;
47749;SDS011;49810;48.160;10.812;2023-05-10T01:16:10;2.20;;;1.42;;
47749;SDS011;49810;48.160;10.812;2023-05-10T01:18:39;1.45;;;1.08;;
47749;SDS011;49810;48.160;10.812;2023-05-10T01:21:12;1.88;;;1.30;;
47749;SDS011;49810;48.160;10.812;2023-05-10T01:23:45;1.73;;;1.13;;
47749;SDS011;49810;48.160;10.812;2023-05-10T01:26:19;1.88;;;1.13;;
47749;SDS011;49810;48.160;10.812;2023-05-10T01:29:01;2.55;;;1.30;;
47749;SDS011;49810;48.160;10.812;2023-05-10T01:31:55;2.00;;;1.05;;
47749;SDS011;49810;48.160;10.812;2023-05-10T01:34:27;1.85;;;1.02;;
47749;SDS011;49810;48.160;10.812;2023-05-10T01:36:58;2.53;;;1.20;;
47749;SDS011;49810;48.160;10.812;2023-05-10T01:39:31;4.28;;;1.48;;
47749;SDS011;49810;48.160;10.812;2023-05-10T01:42:01;1.60;;;1.10;;
47749;SDS011;49810;48.160;10.812;2023-05-10T01:44:31;3.25;;;1.20;;
47749;SDS011;49810;48.160;10.812;2023-05-10T01:47:04;2.88;;;1.42;;
47749;SDS011;49810;48.160;10.812;2023-05-10T01:49:34;2.13;;;1.30;;
47749;SDS011;49810;48.160;10.812;2023-05-10T01:52:06;2.03;;;1.33;;
47749;SDS011;49810;48.160;10.812;2023-05-10T01:54:34;3.10;;;1.52;;
47749;SDS011;49810;48.160;10.812;2023-05-10T01:57:03;2.13;;;1.33;;
47749;SDS011;49810;48.160;10.812;2023-05-10T01:59:34;2.63;;;1.80;;
47749;SDS011;49810;48.160;10.812;2023-05-10T02:02:07;4.15;;;1.80;;
47749;SDS011;49810;48.160;10.812;2023-05-10T02:04:38;1.83;;;1.45;;
47749;SDS011;49810;48.160;10.812;2023-05-10T02:07:06;3.80;;;1.90;;
47749;SDS011;49810;48.160;10.812;2023-05-10T02:09:35;2.58;;;1.60;;
47749;SDS011;49810;48.160;10.812;2023-05-10T02:12:04;2.38;;;1.40;;
47749;SDS011;49810;48.160;10.812;2023-05-10T02:14:34;4.80;;;1.30;;
47749;SDS011;49810;48.160;10.812;2023-05-10T02:17:03;2.63;;;1.40;;
47749;SDS011;49810;48.160;10.812;2023-05-10T02:19:33;1.95;;;1.20;;
47749;SDS011;49810;48.160;10.812;2023-05-10T02:22:01;2.63;;;1.35;;
47749;SDS011;49810;48.160;10.812;2023-05-10T02:24:31;1.77;;;1.20;;
47749;SDS011;49810;48.160;10.812;2023-05-10T02:27:00;2.63;;;1.35;;
47749;SDS011;49810;48.160;10.812;2023-05-10T02:29:29;1.90;;;1.40;;
47749;SDS011;49810;48.160;10.812;2023-05-10T02:31:57;2.20;;;1.20;;
47749;SDS011;49810;48.160;10.812;2023-05-10T02:34:26;2.40;;;1.42;;
47749;SDS011;49810;48.160;10.812;2023-05-10T02:36:56;1.77;;;1.20;;
47749;SDS011;49810;48.160;10.812;2023-05-10T02:39:25;3.95;;;1.67;;
47749;SDS011;49810;48.160;10.812;2023-05-10T02:41:56;2.03;;;1.15;;
47749;SDS011;49810;48.160;10.812;2023-05-10T02:44:24;2.40;;;1.50;;
47749;SDS011;49810;48.160;10.812;2023-05-10T02:46:56;4.80;;;1.83;;
47749;SDS011;49810;48.160;10.812;2023-05-10T02:49:25;2.20;;;1.60;;
47749;SDS011;49810;48.160;10.812;2023-05-10T02:51:55;2.90;;;1.90;;
47749;SDS011;49810;48.160;10.812;2023-05-10T02:54:26;2.42;;;1.63;;
47749;SDS011;49810;48.160;10.812;2023-05-10T02:56:56;3.10;;;1.50;;
47749;SDS011;49810;48.160;10.812;2023-05-10T02:59:25;4.70;;;1.67;;
47749;SDS011;49810;48.160;10.812;2023-05-10T03:01:53;3.17;;;1.70;;
47749;SDS011;49810;48.160;10.812;2023-05-10T03:04:21;2.92;;;1.60;;
47749;SDS011;49810;48.160;10.812;2023-05-10T03:06:53;2.30;;;1.58;;
47749;SDS011;49810;48.160;10.812;2023-05-10T03:09:21;3.13;;;1.80;;
47749;SDS011;49810;48.160;10.812;2023-05-10T03:11:53;2.35;;;1.60;;
47749;SDS011;49810;48.160;10.812;2023-05-10T03:14:28;1.80;;;1.50;;
47749;SDS011;49810;48.160;10.812;2023-05-10T03:17:00;2.05;;;1.38;;
47749;SDS011;49810;48.160;10.812;2023-05-10T03:19:30;2.22;;;1.58;;
47749;SDS011;49810;48.160;10.812;2023-05-10T03:22:02;1.83;;;1.40;;
47749;SDS011;49810;48.160;10.812;2023-05-10T03:27:04;2.72;;;1.60;;
47749;SDS011;49810;48.160;10.812;2023-05-10T03:29:33;2.17;;;1.42;;
47749;SDS011;49810;48.160;10.812;2023-05-10T03:32:02;3.00;;;1.42;;
47749;SDS011;49810;48.160;10.812;2023-05-10T03:34:31;1.33;;;1.13;;
47749;SDS011;49810;48.160;10.812;2023-05-10T03:36:59;2.55;;;1.10;;
47749;SDS011;49810;48.160;10.812;2023-05-10T03:39:30;2.20;;;0.88;;
47749;SDS011;49810;48.160;10.812;2023-05-10T03:41:59;1.27;;;0.77;;
47749;SDS011;49810;48.160;10.812;2023-05-10T03:44:30;1.30;;;0.60;;
47749;SDS011;49810;48.160;10.812;2023-05-10T03:47:00;1.65;;;0.82;;
47749;SDS011;49810;48.160;10.812;2023-05-10T03:49:28;3.25;;;0.77;;
47749;SDS011;49810;48.160;10.812;2023-05-10T03:51:56;1.95;;;0.82;;
47749;SDS011;49810;48.160;10.812;2023-05-10T03:54:24;1.40;;;0.90;;
47749;SDS011;49810;48.160;10.812;2023-05-10T03:56:52;1.48;;;1.05;;
47749;SDS011;49810;48.160;10.812;2023-05-10T03:59:21;1.48;;;1.00;;
47749;SDS011;49810;48.160;10.812;2023-05-10T04:01:52;1.25;;;0.90;;
47749;SDS011;49810;48.160;10.812;2023-05-10T04:04:20;1.88;;;1.00;;
47749;SDS011;49810;48.160;10.812;2023-05-10T04:06:49;1.55;;;0.80;;
47749;SDS011;49810;48.160;10.812;2023-05-10T04:09:18;1.65;;;1.00;;
47749;SDS011;49810;48.160;10.812;2023-05-10T04:11:46;1.70;;;1.00;;
47749;SDS011;49810;48.160;10.812;2023-05-10T04:14:14;1.80;;;0.80;;
47749;SDS011;49810;48.160;10.812;2023-05-10T04:16:42;1.77;;;1.30;;
47749;SDS011;49810;48.160;10.812;2023-05-10T04:19:11;1.65;;;0.88;;
47749;SDS011;49810;48.160;10.812;2023-05-10T04:21:40;1.42;;;0.80;;
47749;SDS011;49810;48.160;10.812;2023-05-10T04:24:08;2.75;;;1.15;;
47749;SDS011;49810;48.160;10.812;2023-05-10T04:26:36;2.83;;;1.70;;
47749;SDS011;49810;48.160;10.812;2023-05-10T04:29:04;1.48;;;1.13;;
47749;SDS011;49810;48.160;10.812;2023-05-10T04:31:31;2.65;;;1.27;;
47749;SDS011;49810;48.160;10.812;2023-05-10T04:34:00;1.77;;;1.00;;
47749;SDS011;49810;48.160;10.812;2023-05-10T04:36:29;3.10;;;1.00;;
47749;SDS011;49810;48.160;10.812;2023-05-10T04:38:58;1.58;;;0.90;;
47749;SDS011;49810;48.160;10.812;2023-05-10T04:41:26;2.22;;;1.15;;
47749;SDS011;49810;48.160;10.812;2023-05-10T04:43:54;1.75;;;1.00;;
47749;SDS011;49810;48.160;10.812;2023-05-10T04:46:22;3.08;;;1.10;;
47749;SDS011;49810;48.160;10.812;2023-05-10T04:48:50;2.95;;;0.80;;
47749;SDS011;49810;48.160;10.812;2023-05-10T04:51:19;2.00;;;0.80;;
47749;SDS011;49810;48.160;10.812;2023-05-10T04:53:48;2.15;;;0.90;;
47749;SDS011;49810;48.160;10.812;2023-05-10T04:56:31;1.25;;;0.82;;
47749;SDS011;49810;48.160;10.812;2023-05-10T04:58:59;1.90;;;0.90;;
47749;SDS011;49810;48.160;10.812;2023-05-10T05:01:27;1.77;;;1.00;;
47749;SDS011;49810;48.160;10.812;2023-05-10T05:03:55;1.33;;;1.13;;
47749;SDS011;49810;48.160;10.812;2023-05-10T05:06:23;2.47;;;1.05;;
47749;SDS011;49810;48.160;10.812;2023-05-10T05:08:55;1.58;;;0.93;;
47749;SDS011;49810;48.160;10.812;2023-05-10T05:11:22;3.25;;;0.90;;
47749;SDS011;49810;48.160;10.812;2023-05-10T05:13:50;2.13;;;0.70;;
47749;SDS011;49810;48.160;10.812;2023-05-10T05:16:18;2.00;;;0.85;;
47749;SDS011;49810;48.160;10.812;2023-05-10T05:18:46;2.33;;;0.80;;
47749;SDS011;49810;48.160;10.812;2023-05-10T05:21:14;2.97;;;0.95;;
47749;SDS011;49810;48.160;10.812;2023-05-10T05:23:42;1.60;;;0.70;;
47749;SDS011;49810;48.160;10.812;2023-05-10T05:26:12;1.70;;;0.90;;
47749;SDS011;49810;48.160;10.812;2023-05-10T05:28:39;2.95;;;0.90;;
47749;SDS011;49810;48.160;10.812;2023-05-10T05:31:07;2.38;;;0.90;;
47749;SDS011;49810;48.160;10.812;2023-05-10T05:33:36;3.47;;;1.00;;
47749;SDS011;49810;48.160;10.812;2023-05-10T05:36:04;1.95;;;1.02;;
47749;SDS011;49810;48.160;10.812;2023-05-10T05:38:32;3.58;;;1.15;;
47749;SDS011;49810;48.160;10.812;2023-05-10T05:41:00;2.80;;;1.40;;
47749;SDS011;49810;48.160;10.812;2023-05-10T05:43:33;2.85;;;1.35;;
47749;SDS011;49810;48.160;10.812;2023-05-10T05:46:04;1.30;;;0.90;;
47749;SDS011;49810;48.160;10.812;2023-05-10T05:48:32;1.63;;;0.95;;
47749;SDS011;49810;48.160;10.812;2023-05-10T05:51:02;2.10;;;1.10;;
47749;SDS011;49810;48.160;10.812;2023-05-10T05:53:32;2.22;;;1.20;;
47749;SDS011;49810;48.160;10.812;2023-05-10T05:56:01;2.58;;;1.30;;
47749;SDS011;49810;48.160;10.812;2023-05-10T05:58:30;2.30;;;1.00;;
47749;SDS011;49810;48.160;10.812;2023-05-10T06:00:59;2.97;;;1.23;;
47749;SDS011;49810;48.160;10.812;2023-05-10T06:03:27;2.38;;;1.10;;
47749;SDS011;49810;48.160;10.812;2023-05-10T06:05:55;2.05;;;1.00;;
47749;SDS011;49810;48.160;10.812;2023-05-10T06:08:22;2.58;;;1.35;;
47749;SDS011;49810;48.160;10.812;2023-05-10T06:10:50;3.05;;;1.33;;
47749;SDS011;49810;48.160;10.812;2023-05-10T06:13:18;1.83;;;1.00;;
47749;SDS011;49810;48.160;10.812;2023-05-10T06:15:46;1.80;;;1.20;;
47749;SDS011;49810;48.160;10.812;2023-05-10T06:18:15;2.88;;;1.00;;
47749;SDS011;49810;48.160;10.812;2023-05-10T06:20:43;5.07;;;1.10;;
47749;SDS011;49810;48.160;10.812;2023-05-10T06:23:11;2.75;;;1.40;;
47749;SDS011;49810;48.160;10.812;2023-05-10T06:25:39;3.08;;;1.05;;
47749;SDS011;49810;48.160;10.812;2023-05-10T06:28:07;1.30;;;0.88;;
47749;SDS011;49810;48.160;10.812;2023-05-10T06:30:36;2.78;;;1.40;;
47749;SDS011;49810;48.160;10.812;2023-05-10T06:33:04;2.40;;;0.85;;
47749;SDS011;49810;48.160;10.812;2023-05-10T06:35:33;1.65;;;0.80;;
47749;SDS011;49810;48.160;10.812;2023-05-10T06:38:01;1.52;;;0.90;;
47749;SDS011;49810;48.160;10.812;2023-05-10T06:40:29;2.38;;;0.93;;
47749;SDS011;49810;48.160;10.812;2023-05-10T06:42:57;3.97;;;0.77;;
47749;SDS011;49810;48.160;10.812;2023-05-10T06:45:24;2.58;;;1.27;;
47749;SDS011;49810;48.160;10.812;2023-05-10T06:47:53;2.47;;;0.90;;
47749;SDS011;49810;48.160;10.812;2023-05-10T06:50:21;2.78;;;0.90;;
47749;SDS011;49810;48.160;10.812;2023-05-10T06:52:50;1.90;;;1.00;;
47749;SDS011;49810;48.160;10.812;2023-05-10T06:55:18;2.45;;;0.93;;
47749;SDS011;49810;48.160;10.812;2023-05-10T06:57:46;2.85;;;0.90;;
47749;SDS011;49810;48.160;10.812;2023-05-10T07:00:14;3.33;;;0.82;;
47749;SDS011;49810;48.160;10.812;2023-05-10T07:02:43;1.33;;;0.93;;
47749;SDS011;49810;48.160;10.812;2023-05-10T07:05:11;1.33;;;0.75;;
47749;SDS011;49810;48.160;10.812;2023-05-10T07:07:39;1.55;;;0.88;;
47749;SDS011;49810;48.160;10.812;2023-05-10T07:10:09;3.40;;;0.98;;
47749;SDS011;49810;48.160;10.812;2023-05-10T07:12:37;5.55;;;1.13;;
47749;SDS011;49810;48.160;10.812;2023-05-10T07:15:06;1.58;;;1.05;;
47749;SDS011;49810;48.160;10.812;2023-05-10T07:17:34;2.88;;;1.00;;
47749;SDS011;49810;48.160;10.812;2023-05-10T07:20:02;2.15;;;1.08;;
47749;SDS011;49810;48.160;10.812;2023-05-10T07:22:30;3.10;;;1.20;;
47749;SDS011;49810;48.160;10.812;2023-05-10T07:24:58;2.85;;;1.30;;
47749;SDS011;49810;48.160;10.812;2023-05-10T07:27:27;1.40;;;0.90;;
47749;SDS011;49810;48.160;10.812;2023-05-10T07:29:55;2.70;;;1.10;;
47749;SDS011;49810;48.160;10.812;2023-05-10T07:32:23;2.40;;;1.00;;
47749;SDS011;49810;48.160;10.812;2023-05-10T07:34:51;8.25;;;1.20;;
47749;SDS011;49810;48.160;10.812;2023-05-10T07:37:18;2.75;;;1.20;;
47749;SDS011;49810;48.160;10.812;2023-05-10T07:39:46;2.75;;;0.90;;
47749;SDS011;49810;48.160;10.812;2023-05-10T07:42:14;1.20;;;0.85;;
47749;SDS011;49810;48.160;10.812;2023-05-10T07:44:43;3.50;;;1.00;;
47749;SDS011;49810;48.160;10.812;2023-05-10T07:47:12;2.22;;;1.08;;
47749;SDS011;49810;48.160;10.812;2023-05-10T07:49:39;1.67;;;1.00;;
47749;SDS011;49810;48.160;10.812;2023-05-10T07:52:07;2.25;;;0.80;;
47749;SDS011;49810;48.160;10.812;2023-05-10T07:54:35;2.10;;;1.00;;
47749;SDS011;49810;48.160;10.812;2023-05-10T07:57:03;4.18;;;1.13;;
47749;SDS011;49810;48.160;10.812;2023-05-10T07:59:31;2.17;;;0.95;;
47749;SDS011;49810;48.160;10.812;2023-05-10T08:02:01;1.83;;;0.85;;
47749;SDS011;49810;48.160;10.812;2023-05-10T08:04:29;1.15;;;0.80;;
47749;SDS011;49810;48.160;10.812;2023-05-10T08:06:57;1.15;;;0.85;;
47749;SDS011;49810;48.160;10.812;2023-05-10T08:09:25;1.83;;;1.00;;
47749;SDS011;49810;48.160;10.812;2023-05-10T08:11:53;1.70;;;1.00;;
47749;SDS011;49810;48.160;10.812;2023-05-10T08:14:21;2.95;;;0.90;;
47749;SDS011;49810;48.160;10.812;2023-05-10T08:16:49;0.90;;;0.63;;
47749;SDS011;49810;48.160;10.812;2023-05-10T08:19:19;2.40;;;0.85;;
47749;SDS011;49810;48.160;10.812;2023-05-10T08:21:47;1.58;;;0.90;;
47749;SDS011;49810;48.160;10.812;2023-05-10T08:24:15;1.75;;;1.02;;
47749;SDS011;49810;48.160;10.812;2023-05-10T08:26:43;1.63;;;0.88;;
47749;SDS011;49810;48.160;10.812;2023-05-10T08:29:11;1.27;;;0.60;;
47749;SDS011;49810;48.160;10.812;2023-05-10T08:31:39;1.80;;;0.73;;
47749;SDS011;49810;48.160;10.812;2023-05-10T08:34:07;1.90;;;0.68;;
47749;SDS011;49810;48.160;10.812;2023-05-10T08:36:36;3.13;;;0.77;;
47749;SDS011;49810;48.160;10.812;2023-05-10T08:39:04;1.75;;;0.75;;
47749;SDS011;49810;48.160;10.812;2023-05-10T08:41:41;1.25;;;0.70;;
47749;SDS011;49810;48.160;10.812;2023-05-10T08:44:11;1.65;;;0.70;;
47749;SDS011;49810;48.160;10.812;2023-05-10T08:46:40;2.38;;;0.80;;
47749;SDS011;49810;48.160;10.812;2023-05-10T08:49:14;2.00;;;0.90;;
47749;SDS011;49810;48.160;10.812;2023-05-10T08:51:47;1.83;;;1.02;;
47749;SDS011;49810;48.160;10.812;2023-05-10T08:54:17;1.90;;;0.90;;
47749;SDS011;49810;48.160;10.812;2023-05-10T08:56:46;1.67;;;0.90;;
47749;SDS011;49810;48.160;10.812;2023-05-10T08:59:15;1.63;;;0.73;;
47749;SDS011;49810;48.160;10.812;2023-05-10T09:01:43;1.90;;;0.90;;
47749;SDS011;49810;48.160;10.812;2023-05-10T09:04:12;2.40;;;0.93;;
47749;SDS011;49810;48.160;10.812;2023-05-10T09:06:40;4.63;;;0.95;;
47749;SDS011;49810;48.160;10.812;2023-05-10T09:09:09;3.70;;;0.80;;
47749;SDS011;49810;48.160;10.812;2023-05-10T09:11:37;1.17;;;0.88;;
47749;SDS011;49810;48.160;10.812;2023-05-10T09:14:05;2.85;;;0.80;;
47749;SDS011;49810;48.160;10.812;2023-05-10T09:16:33;3.30;;;0.98;;
47749;SDS011;49810;48.160;10.812;2023-05-10T09:19:01;4.75;;;1.13;;
47749;SDS011;49810;48.160;10.812;2023-05-10T09:21:29;0.85;;;0.57;;
47749;SDS011;49810;48.160;10.812;2023-05-10T09:23:58;1.33;;;0.68;;
47749;SDS011;49810;48.160;10.812;2023-05-10T09:26:31;1.15;;;0.70;;
47749;SDS011;49810;48.160;10.812;2023-05-10T09:29:00;0.88;;;0.60;;
47749;SDS011;49810;48.160;10.812;2023-05-10T09:31:45;1.40;;;0.70;;
47749;SDS011;49810;48.160;10.812;2023-05-10T09:34:17;1.98;;;0.90;;
47749;SDS011;49810;48.160;10.812;2023-05-10T09:39:31;1.15;;;0.55;;
47749;SDS011;49810;48.160;10.812;2023-05-10T09:42:01;1.73;;;0.52;;
47749;SDS011;49810;48.160;10.812;2023-05-10T09:44:30;1.20;;;0.80;;
47749;SDS011;49810;48.160;10.812;2023-05-10T09:46:58;2.85;;;0.90;;
47749;SDS011;49810;48.160;10.812;2023-05-10T09:49:26;1.20;;;0.88;;
47749;SDS011;49810;48.160;10.812;2023-05-10T09:52:01;4.18;;;0.80;;
47749;SDS011;49810;48.160;10.812;2023-05-10T09:54:29;2.55;;;0.70;;
47749;SDS011;49810;48.160;10.812;2023-05-10T09:56:57;2.13;;;0.80;;
47749;SDS011;49810;48.160;10.812;2023-05-10T09:59:27;2.22;;;0.70;;
47749;SDS011;49810;48.160;10.812;2023-05-10T10:01:56;2.67;;;1.20;;
47749;SDS011;49810;48.160;10.812;2023-05-10T10:04:25;1.77;;;0.90;;
47749;SDS011;49810;48.160;10.812;2023-05-10T10:07:00;1.05;;;0.68;;
47749;SDS011;49810;48.160;10.812;2023-05-10T10:11:56;3.03;;;0.57;;
47749;SDS011;49810;48.160;10.812;2023-05-10T10:14:27;1.33;;;0.60;;
47749;SDS011;49810;48.160;10.812;2023-05-10T10:16:55;1.92;;;0.80;;
47749;SDS011;49810;48.160;10.812;2023-05-10T10:19:34;3.33;;;0.68;;
47749;SDS011;49810;48.160;10.812;2023-05-10T10:22:03;1.08;;;0.50;;
47749;SDS011;49810;48.160;10.812;2023-05-10T10:24:33;1.45;;;0.70;;
47749;SDS011;49810;48.160;10.812;2023-05-10T10:27:03;2.20;;;0.82;;
47749;SDS011;49810;48.160;10.812;2023-05-10T10:29:36;1.00;;;0.57;;
47749;SDS011;49810;48.160;10.812;2023-05-10T10:32:09;1.45;;;0.75;;
47749;SDS011;49810;48.160;10.812;2023-05-10T10:34:39;2.13;;;1.00;;
47749;SDS011;49810;48.160;10.812;2023-05-10T10:37:09;1.35;;;0.52;;
47749;SDS011;49810;48.160;10.812;2023-05-10T10:39:39;2.85;;;0.68;;
47749;SDS011;49810;48.160;10.812;2023-05-10T10:42:07;1.48;;;0.70;;
47749;SDS011;49810;48.160;10.812;2023-05-10T10:44:40;4.05;;;0.90;;
47749;SDS011;49810;48.160;10.812;2023-05-10T10:47:20;3.83;;;0.73;;
47749;SDS011;49810;48.160;10.812;2023-05-10T10:49:51;1.08;;;0.55;;
47749;SDS011;49810;48.160;10.812;2023-05-10T10:52:21;1.50;;;0.70;;
47749;SDS011;49810;48.160;10.812;2023-05-10T10:54:52;1.00;;;0.60;;
47749;SDS011;49810;48.160;10.812;2023-05-10T10:57:20;0.82;;;0.70;;
47749;SDS011;49810;48.160;10.812;2023-05-10T10:59:50;0.73;;;0.55;;
47749;SDS011;49810;48.160;10.812;2023-05-10T11:02:34;3.55;;;0.80;;
47749;SDS011;49810;48.160;10.812;2023-05-10T11:07:51;1.65;;;0.73;;
47749;SDS011;49810;48.160;10.812;2023-05-10T11:10:19;1.42;;;0.90;;
47749;SDS011;49810;48.160;10.812;2023-05-10T11:12:53;6.07;;;1.20;;
47749;SDS011;49810;48.160;10.812;2023-05-10T11:15:29;1.90;;;1.20;;
47749;SDS011;49810;48.160;10.812;2023-05-10T11:17:58;5.55;;;1.27;;
47749;SDS011;49810;48.160;10.812;2023-05-10T11:20:29;1.73;;;1.13;;
47749;SDS011;49810;48.160;10.812;2023-05-10T11:23:12;2.40;;;1.00;;
47749;SDS011;49810;48.160;10.812;2023-05-10T11:25:42;2.22;;;1.00;;
47749;SDS011;49810;48.160;10.812;2023-05-10T11:28:16;1.58;;;1.05;;
47749;SDS011;49810;48.160;10.812;2023-05-10T11:30:49;1.40;;;0.90;;
47749;SDS011;49810;48.160;10.812;2023-05-10T11:33:17;3.90;;;0.80;;
47749;SDS011;49810;48.160;10.812;2023-05-10T11:35:46;2.53;;;0.88;;
47749;SDS011;49810;48.160;10.812;2023-05-10T11:38:14;2.88;;;0.70;;
47749;SDS011;49810;48.160;10.812;2023-05-10T11:40:42;2.55;;;0.70;;
47749;SDS011;49810;48.160;10.812;2023-05-10T11:43:10;5.07;;;0.88;;
47749;SDS011;49810;48.160;10.812;2023-05-10T11:45:39;1.15;;;0.68;;
47749;SDS011;49810;48.160;10.812;2023-05-10T11:48:10;1.60;;;0.80;;
47749;SDS011;49810;48.160;10.812;2023-05-10T11:50:38;4.13;;;0.82;;
47749;SDS011;49810;48.160;10.812;2023-05-10T11:53:06;1.40;;;0.70;;
47749;SDS011;49810;48.160;10.812;2023-05-10T11:55:34;1.98;;;0.55;;
47749;SDS011;49810;48.160;10.812;2023-05-10T11:58:02;0.95;;;0.50;;
47749;SDS011;49810;48.160;10.812;2023-05-10T12:00:30;1.88;;;0.50;;
47749;SDS011;49810;48.160;10.812;2023-05-10T12:02:59;2.45;;;0.80;;
47749;SDS011;49810;48.160;10.812;2023-05-10T12:05:29;2.05;;;0.60;;
47749;SDS011;49810;48.160;10.812;2023-05-10T12:08:12;1.70;;;0.70;;
47749;SDS011;49810;48.160;10.812;2023-05-10T12:10:39;1.05;;;0.45;;
47749;SDS011;49810;48.160;10.812;2023-05-10T12:13:10;1.90;;;0.73;;
47749;SDS011;49810;48.160;10.812;2023-05-10T12:15:38;1.50;;;0.70;;
47749;SDS011;49810;48.160;10.812;2023-05-10T12:18:07;2.00;;;0.80;;
47749;SDS011;49810;48.160;10.812;2023-05-10T12:20:38;3.33;;;0.90;;
47749;SDS011;49810;48.160;10.812;2023-05-10T12:23:08;1.92;;;0.80;;
47749;SDS011;49810;48.160;10.812;2023-05-10T12:25:37;1.83;;;0.88;;
47749;SDS011;49810;48.160;10.812;2023-05-10T12:28:06;1.63;;;0.70;;
47749;SDS011;49810;48.160;10.812;2023-05-10T12:30:34;2.33;;;0.80;;
47749;SDS011;49810;48.160;10.812;2023-05-10T12:33:03;1.40;;;0.57;;
47749;SDS011;49810;48.160;10.812;2023-05-10T12:35:44;1.30;;;0.60;;
47749;SDS011;49810;48.160;10.812;2023-05-10T12:38:27;1.13;;;0.68;;
47749;SDS011;49810;48.160;10.812;2023-05-10T12:40:57;1.33;;;0.57;;
47749;SDS011;49810;48.160;10.812;2023-05-10T12:43:25;2.15;;;0.60;;
47749;SDS011;49810;48.160;10.812;2023-05-10T12:45:54;1.40;;;0.65;;
47749;SDS011;49810;48.160;10.812;2023-05-10T12:48:22;1.13;;;0.43;;
47749;SDS011;49810;48.160;10.812;2023-05-10T12:50:51;0.65;;;0.50;;
47749;SDS011;49810;48.160;10.812;2023-05-10T12:53:19;1.73;;;0.47;;
47749;SDS011;49810;48.160;10.812;2023-05-10T12:55:47;3.35;;;0.60;;
47749;SDS011;49810;48.160;10.812;2023-05-10T12:58:15;2.70;;;0.50;;
47749;SDS011;49810;48.160;10.812;2023-05-10T13:01:00;1.17;;;0.60;;
47749;SDS011;49810;48.160;10.812;2023-05-10T13:03:30;1.95;;;0.60;;
47749;SDS011;49810;48.160;10.812;2023-05-10T13:05:59;1.77;;;0.80;;
47749;SDS011;49810;48.160;10.812;2023-05-10T13:08:27;2.17;;;0.70;;
47749;SDS011;49810;48.160;10.812;2023-05-10T13:10:59;1.42;;;0.63;;
47749;SDS011;49810;48.160;10.812;2023-05-10T13:13:27;2.00;;;0.73;;
47749;SDS011;49810;48.160;10.812;2023-05-10T13:15:58;2.30;;;0.65;;
47749;SDS011;49810;48.160;10.812;2023-05-10T13:18:27;2.78;;;0.98;;
47749;SDS011;49810;48.160;10.812;2023-05-10T13:20:55;2.67;;;0.77;;
47749;SDS011;49810;48.160;10.812;2023-05-10T13:23:25;1.23;;;0.60;;
47749;SDS011;49810;48.160;10.812;2023-05-10T13:25:53;1.55;;;0.50;;
47749;SDS011;49810;48.160;10.812;2023-05-10T13:28:21;0.63;;;0.47;;
47749;SDS011;49810;48.160;10.812;2023-05-10T13:30:49;0.82;;;0.47;;
47749;SDS011;49810;48.160;10.812;2023-05-10T13:33:17;1.27;;;0.50;;
47749;SDS011;49810;48.160;10.812;2023-05-10T13:35:44;1.27;;;0.70;;
47749;SDS011;49810;48.160;10.812;2023-05-10T13:38:12;1.85;;;0.90;;
47749;SDS011;49810;48.160;10.812;2023-05-10T13:40:42;1.13;;;0.77;;
47749;SDS011;49810;48.160;10.812;2023-05-10T13:43:09;2.42;;;0.90;;
47749;SDS011;49810;48.160;10.812;2023-05-10T13:45:37;4.00;;;1.13;;
47749;SDS011;49810;48.160;10.812;2023-05-10T13:48:05;2.67;;;1.00;;
47749;SDS011;49810;48.160;10.812;2023-05-10T13:50:33;1.42;;;0.82;;
47749;SDS011;49810;48.160;10.812;2023-05-10T13:53:02;2.70;;;0.82;;
47749;SDS011;49810;48.160;10.812;2023-05-10T13:55:29;2.03;;;1.10;;
47749;SDS011;49810;48.160;10.812;2023-05-10T13:57:59;4.53;;;1.20;;
47749;SDS011;49810;48.160;10.812;2023-05-10T14:00:27;3.72;;;1.88;;
47749;SDS011;49810;48.160;10.812;2023-05-10T14:02:55;3.10;;;1.40;;
47749;SDS011;49810;48.160;10.812;2023-05-10T14:05:23;5.50;;;0.98;;
47749;SDS011;49810;48.160;10.812;2023-05-10T14:07:52;1.75;;;0.90;;
47749;SDS011;49810;48.160;10.812;2023-05-10T14:10:20;4.03;;;1.48;;
47749;SDS011;49810;48.160;10.812;2023-05-10T14:12:48;3.38;;;1.15;;
47749;SDS011;49810;48.160;10.812;2023-05-10T14:15:17;3.47;;;1.15;;
47749;SDS011;49810;48.160;10.812;2023-05-10T14:17:45;3.42;;;1.10;;
47749;SDS011;49810;48.160;10.812;2023-05-10T14:20:13;2.20;;;1.17;;
47749;SDS011;49810;48.160;10.812;2023-05-10T14:22:41;2.03;;;1.23;;
47749;SDS011;49810;48.160;10.812;2023-05-10T14:25:09;3.97;;;2.03;;
47749;SDS011;49810;48.160;10.812;2023-05-10T14:27:37;2.33;;;1.33;;
47749;SDS011;49810;48.160;10.812;2023-05-10T14:30:05;2.35;;;1.27;;
47749;SDS011;49810;48.160;10.812;2023-05-10T14:32:35;7.57;;;3.72;;
47749;SDS011;49810;48.160;10.812;2023-05-10T14:35:04;5.35;;;1.48;;
47749;SDS011;49810;48.160;10.812;2023-05-10T14:37:36;4.30;;;2.13;;
47749;SDS011;49810;48.160;10.812;2023-05-10T14:40:04;2.92;;;1.05;;
47749;SDS011;49810;48.160;10.812;2023-05-10T14:42:33;3.03;;;1.23;;
47749;SDS011;49810;48.160;10.812;2023-05-10T14:45:01;3.70;;;1.58;;
47749;SDS011;49810;48.160;10.812;2023-05-10T14:47:29;5.35;;;2.13;;
47749;SDS011;49810;48.160;10.812;2023-05-10T14:49:59;3.80;;;1.52;;
47749;SDS011;49810;48.160;10.812;2023-05-10T14:52:27;2.85;;;1.15;;
47749;SDS011;49810;48.160;10.812;2023-05-10T14:54:54;3.05;;;0.85;;
47749;SDS011;49810;48.160;10.812;2023-05-10T14:57:23;4.07;;;1.25;;